createdAt,value
2019-03-20T00:03:43.372Z,3.10
2019-03-20T00:08:50.373Z,3.04
2019-03-20T00:13:58.888Z,3.03
2019-03-20T00:19:05.887Z,3.00
2019-03-20T00:24:12.589Z,2.95
2019-03-20T00:29:19.408Z,2.79
2019-03-20T00:34:26.388Z,2.79
2019-03-20T00:39:32.238Z,2.78
2019-03-20T00:44:39.087Z,2.74
2019-03-20T00:49:46.050Z,2.63
2019-03-20T00:54:52.983Z,2.63
2019-03-20T00:59:59.704Z,2.70
2019-03-20T01:05:12.500Z,2.68
2019-03-20T01:10:18.888Z,2.63
2019-03-20T01:15:25.739Z,2.58
2019-03-20T01:20:32.511Z,2.56
2019-03-20T01:25:39.525Z,2.54
2019-03-20T01:30:46.411Z,2.53
2019-03-20T01:35:53.422Z,2.50
2019-03-20T01:41:00.444Z,2.49
2019-03-20T01:46:07.520Z,2.45
2019-03-20T01:51:21.204Z,2.33
2019-03-20T01:56:28.351Z,2.33
2019-03-20T02:01:35.348Z,2.29
2019-03-20T02:06:43.322Z,2.22
2019-03-20T02:11:50.358Z,2.18
2019-03-20T02:16:57.395Z,2.13
2019-03-20T02:22:04.372Z,2.09
2019-03-20T02:27:11.852Z,2.02
2019-03-20T02:32:18.549Z,1.95
2019-03-20T02:37:26.439Z,1.87
2019-03-20T02:42:33.424Z,1.80
2019-03-20T02:48:00.657Z,1.78
2019-03-20T02:53:07.531Z,1.77
2019-03-20T02:58:15.548Z,1.71
2019-03-20T03:03:22.428Z,1.70
2019-03-20T03:08:29.392Z,1.68
2019-03-20T03:13:36.420Z,1.64
2019-03-20T03:18:43.420Z,1.60
2019-03-20T03:23:50.380Z,1.58
2019-03-20T03:28:56.289Z,1.55
2019-03-20T03:34:03.175Z,1.53
2019-03-20T03:39:11.201Z,1.52
2019-03-20T03:44:19.102Z,1.50
2019-03-20T03:49:26.075Z,1.46
2019-03-20T03:54:33.051Z,1.41
2019-03-20T03:59:40.025Z,1.37
2019-03-20T04:04:46.976Z,1.37
2019-03-20T04:09:55.316Z,1.36
2019-03-20T04:15:02.197Z,1.36
2019-03-20T04:20:12.081Z,1.34
2019-03-20T04:25:20.194Z,1.34
2019-03-20T04:30:27.038Z,1.32
2019-03-20T04:35:33.748Z,1.30
2019-03-20T04:40:40.535Z,1.24
2019-03-20T04:45:47.398Z,1.13
2019-03-20T04:50:54.347Z,1.13
2019-03-20T04:56:01.352Z,1.18
2019-03-20T05:01:08.329Z,1.14
2019-03-20T05:06:15.281Z,1.12
2019-03-20T05:11:22.383Z,1.11
2019-03-20T05:16:29.386Z,1.11
2019-03-20T05:21:36.408Z,1.13
2019-03-20T05:26:43.408Z,1.13
2019-03-20T05:31:50.374Z,1.15
2019-03-20T05:36:57.342Z,1.20
2019-03-20T05:42:04.324Z,1.20
2019-03-20T05:47:11.341Z,1.26
2019-03-20T05:52:18.348Z,1.34
2019-03-20T05:57:25.411Z,1.46
2019-03-20T06:02:32.358Z,1.58
2019-03-20T06:07:39.333Z,1.71
2019-03-20T06:12:46.408Z,2.03
2019-03-20T06:17:53.325Z,2.03
2019-03-20T06:23:00.345Z,2.20
2019-03-20T06:28:07.396Z,2.33
2019-03-20T06:33:14.345Z,2.46
2019-03-20T06:38:21.335Z,2.58
2019-03-20T06:43:27.239Z,2.72
2019-03-20T06:48:34.179Z,2.87
2019-03-20T06:53:41.257Z,3.04
2019-03-20T06:58:48.262Z,3.22
2019-03-20T07:04:43.865Z,3.43
2019-03-20T07:10:31.478Z,3.62
2019-03-20T07:15:38.380Z,3.84
2019-03-20T07:20:45.349Z,4.04
2019-03-20T07:25:52.380Z,4.25
2019-03-20T07:30:59.389Z,4.48
2019-03-20T07:36:07.889Z,4.70
2019-03-20T07:41:14.729Z,4.95
2019-03-20T07:46:21.623Z,5.16
2019-03-20T07:51:28.425Z,5.36
2019-03-20T07:56:35.407Z,5.49
2019-03-20T08:01:42.381Z,5.68
2019-03-20T08:06:49.425Z,5.86
2019-03-20T08:11:57.630Z,6.06
2019-03-20T08:17:04.419Z,6.43
2019-03-20T08:22:11.387Z,6.61
2019-03-20T08:27:18.478Z,6.61
2019-03-20T08:32:25.399Z,6.81
2019-03-20T08:37:31.224Z,7.07
2019-03-20T08:42:38.173Z,7.34
2019-03-20T08:47:45.348Z,7.55
2019-03-20T08:52:52.350Z,7.82
2019-03-20T08:57:59.405Z,8.06
2019-03-20T09:03:07.455Z,8.41
2019-03-20T09:08:14.542Z,8.63
2019-03-20T09:13:21.463Z,8.92
2019-03-20T09:18:28.441Z,8.92
2019-03-20T09:23:39.837Z,9.42
2019-03-20T09:28:44.249Z,10.37
2019-03-20T09:33:51.492Z,11.12
2019-03-20T09:38:58.698Z,12.07
2019-03-20T09:44:06.248Z,12.07
2019-03-20T09:49:13.304Z,12.43
2019-03-20T09:54:20.570Z,12.44
2019-03-20T09:59:27.530Z,12.55
2019-03-20T10:04:34.476Z,12.55
2019-03-20T10:09:41.444Z,12.78
2019-03-20T10:14:48.474Z,13.02
2019-03-20T10:19:55.432Z,13.07
2019-03-20T10:25:02.471Z,12.94
2019-03-20T10:30:16.570Z,13.00
2019-03-20T10:35:24.097Z,13.17
2019-03-20T10:40:31.575Z,13.29
2019-03-20T10:45:38.502Z,13.42
2019-03-20T10:50:45.576Z,13.42
2019-03-20T10:55:52.452Z,13.61
2019-03-20T11:00:59.586Z,13.67
2019-03-20T11:06:10.225Z,13.75
2019-03-20T11:11:26.668Z,13.75
2019-03-20T11:16:26.437Z,13.86
2019-03-20T11:21:33.591Z,14.01
2019-03-20T11:26:40.531Z,14.22
2019-03-20T11:31:47.581Z,14.31
2019-03-20T11:36:54.577Z,14.63
2019-03-20T11:42:01.470Z,14.82
2019-03-20T11:47:09.497Z,14.70
2019-03-20T11:52:18.422Z,14.70
2019-03-20T11:57:25.585Z,14.97
2019-03-20T12:02:32.579Z,14.84
2019-03-20T12:07:39.610Z,14.63
2019-03-20T12:12:46.447Z,14.51
2019-03-20T12:17:53.494Z,14.51
2019-03-20T12:27:57.063Z,14.97
2019-03-20T12:33:04.564Z,15.73
2019-03-20T12:38:14.960Z,16.10
2019-03-20T12:43:20.498Z,15.99
2019-03-20T12:48:27.444Z,15.72
2019-03-20T12:53:35.038Z,15.78
2019-03-20T13:00:01.637Z,15.82
2019-03-20T13:05:11.323Z,15.63
2019-03-20T13:10:18.983Z,15.63
2019-03-20T13:15:26.269Z,15.61
2019-03-20T13:20:32.295Z,15.88
2019-03-20T13:25:39.586Z,16.04
2019-03-20T13:30:56.657Z,16.20
2019-03-20T13:36:04.232Z,16.20
2019-03-20T13:41:11.460Z,15.68
2019-03-20T13:51:00.710Z,15.14
2019-03-20T13:56:07.594Z,15.67
2019-03-20T14:01:14.456Z,15.83
2019-03-20T14:06:21.474Z,15.83
2019-03-20T14:11:29.578Z,16.13
2019-03-20T14:16:36.450Z,16.01
2019-03-20T14:21:43.574Z,16.01
2019-03-20T14:26:52.264Z,16.07
2019-03-20T14:31:59.572Z,16.21
2019-03-20T14:37:05.336Z,16.54
2019-03-20T14:42:12.448Z,16.70
2019-03-20T14:47:19.532Z,16.99
2019-03-20T14:52:27.057Z,17.23
2019-03-20T14:57:34.262Z,17.56
2019-03-20T15:02:41.427Z,17.32
2019-03-20T15:07:48.557Z,16.77
2019-03-20T15:12:56.242Z,16.44
2019-03-20T15:18:03.519Z,16.44
2019-03-20T15:23:10.565Z,17.25
2019-03-20T15:28:17.865Z,17.05
2019-03-20T15:33:24.696Z,16.61
2019-03-20T15:38:31.572Z,16.61
2019-03-20T15:43:38.578Z,16.01
2019-03-20T15:48:45.467Z,15.58
2019-03-20T15:53:52.471Z,15.58
2019-03-20T15:59:00.476Z,15.12
2019-03-20T16:04:09.897Z,14.95
2019-03-20T16:10:34.893Z,14.67
2019-03-20T16:15:41.589Z,14.62
2019-03-20T16:20:48.549Z,14.47
2019-03-20T16:25:55.449Z,14.38
2019-03-20T16:31:02.446Z,14.25
2019-03-20T16:36:09.581Z,14.25
2019-03-20T16:41:17.184Z,14.11
2019-03-20T16:46:24.496Z,14.07
2019-03-20T16:51:31.574Z,14.07
2019-03-20T16:56:38.471Z,14.01
2019-03-20T17:01:45.455Z,14.01
2019-03-20T17:06:52.545Z,14.00
2019-03-20T17:11:59.597Z,13.92
2019-03-20T17:17:06.657Z,13.75
2019-03-20T17:22:13.627Z,13.75
2019-03-20T17:27:20.577Z,13.66
2019-03-20T17:32:27.570Z,13.62
2019-03-20T17:37:34.567Z,13.59
2019-03-20T17:42:42.584Z,13.59
2019-03-20T17:47:50.254Z,13.52
2019-03-20T17:52:57.571Z,13.52
2019-03-20T17:58:06.431Z,13.47
2019-03-20T18:03:13.598Z,13.47
2019-03-20T18:08:19.358Z,13.46
2019-03-20T18:13:27.734Z,13.35
2019-03-20T18:18:34.588Z,13.35
2019-03-20T18:23:41.608Z,13.31
2019-03-20T18:28:48.592Z,13.30
2019-03-20T18:33:55.595Z,13.30
2019-03-20T18:39:02.466Z,13.19
2019-03-20T18:44:09.587Z,13.19
2019-03-20T18:49:16.595Z,13.11
2019-03-20T18:54:24.445Z,13.05
2019-03-20T19:04:12.599Z,12.92
2019-03-20T19:09:19.591Z,12.98
2019-03-20T19:14:26.580Z,12.98
2019-03-20T19:19:33.612Z,12.99
2019-03-20T19:24:40.589Z,12.99
2019-03-20T19:29:47.487Z,13.05
2019-03-20T19:34:54.579Z,13.05
2019-03-20T19:40:00.325Z,13.04
2019-03-20T19:45:12.424Z,13.05
2019-03-20T19:50:19.587Z,13.05
2019-03-20T19:55:26.588Z,13.06
2019-03-20T20:00:33.584Z,13.06
2019-03-20T20:05:40.522Z,13.04
2019-03-20T20:10:47.589Z,12.98
2019-03-20T20:15:54.681Z,12.96
2019-03-20T20:21:01.447Z,12.91
2019-03-20T20:26:08.577Z,12.91
2019-03-20T20:31:15.587Z,12.86
2019-03-20T20:36:22.609Z,12.91
2019-03-20T20:41:29.558Z,12.91
2019-03-20T20:46:36.573Z,12.96
2019-03-20T20:55:33.674Z,12.90
2019-03-20T21:00:40.691Z,13.01
2019-03-20T21:05:47.856Z,13.03
2019-03-20T21:10:54.918Z,13.03
2019-03-20T21:16:07.588Z,13.07
2019-03-20T21:21:14.376Z,13.07
2019-03-20T21:26:23.322Z,13.03
2019-03-20T21:31:54.713Z,13.03
2019-03-20T21:38:05.934Z,13.10
2019-03-20T21:47:30.265Z,12.93
2019-03-20T21:52:37.386Z,13.06
2019-03-20T21:58:37.265Z,13.01
2019-03-20T22:03:45.253Z,13.01
2019-03-20T22:08:59.783Z,12.94
2019-03-20T22:14:11.252Z,12.89
2019-03-20T22:19:42.636Z,12.84
2019-03-20T22:25:26.613Z,12.75
2019-03-20T22:30:34.592Z,12.71
2019-03-20T22:35:56.749Z,12.71
2019-03-20T22:41:46.272Z,12.76
2019-03-20T22:48:43.442Z,12.68
2019-03-20T22:54:58.717Z,12.61
2019-03-20T23:00:10.267Z,12.47
2019-03-20T23:05:20.113Z,12.33
2019-03-20T23:10:29.457Z,12.32
2019-03-20T23:15:37.273Z,12.29
2019-03-20T23:20:44.258Z,12.22
2019-03-20T23:25:52.064Z,12.21
2019-03-20T23:31:00.587Z,12.17
2019-03-20T23:36:09.628Z,12.18
2019-03-20T23:41:19.067Z,12.15
2019-03-20T23:46:28.460Z,12.15
2019-03-20T23:51:37.246Z,12.19
2019-03-20T23:56:45.625Z,12.19
